Time;durP1;ratioP1;P1;durP2;ratioP2;P2;SDS_P1;SDS_P2;PMS_P1;PMS_P2;Temp;Humidity;BMP_temperature;BMP_pressure;BME280_temperature;BME280_humidity;BME280_pressure;Samples;Min_cycle;Max_cycle;Signal;HPM_P1;HPM_P2
2023/04/24 00:01:00;;;;;;;23.63;15.20;;;;;;;8.80;100.00;99876.28;5224376;28;20040;-64
2023/04/24 00:03:32;;;;;;;20.58;15.07;;;;;;;8.82;100.00;99874.34;5223872;28;20069;-64
2023/04/24 00:06:06;;;;;;;21.80;16.23;;;;;;;8.81;100.00;99885.94;5229706;28;20104;-64
2023/04/24 00:08:38;;;;;;;20.63;15.45;;;;;;;8.82;100.00;99877.00;5222246;28;20581;-64
2023/04/24 00:11:09;;;;;;;23.00;16.27;;;;;;;8.81;100.00;99874.47;5223988;28;20535;-64
2023/04/24 00:13:40;;;;;;;21.50;15.60;;;;;;;8.84;100.00;99876.88;5223310;28;20029;-64
2023/04/24 00:16:12;;;;;;;23.50;15.88;;;;;;;8.81;100.00;99882.44;5222758;28;20033;-64
2023/04/24 00:18:44;;;;;;;22.45;16.85;;;;;;;8.81;100.00;99885.13;5220456;28;20033;-64
2023/04/24 00:21:17;;;;;;;21.77;16.27;;;;;;;8.78;100.00;99885.34;5236018;28;20039;-64
2023/04/24 00:23:48;;;;;;;26.70;17.42;;;;;;;8.78;100.00;99883.56;5223779;28;20038;-64
2023/04/24 00:26:20;;;;;;;25.83;17.92;;;;;;;8.71;100.00;99879.72;5218309;28;20048;-64
2023/04/24 00:28:51;;;;;;;28.02;19.23;;;;;;;8.74;100.00;99887.44;5225185;28;20036;-64
2023/04/24 00:31:23;;;;;;;28.77;18.67;;;;;;;8.74;100.00;99892.75;5220470;28;20029;-64
2023/04/24 00:33:54;;;;;;;29.92;19.70;;;;;;;8.73;100.00;99891.06;5219726;28;20036;-64
2023/04/24 00:36:26;;;;;;;27.70;19.75;;;;;;;8.73;100.00;99892.91;5224562;28;20060;-64
2023/04/24 00:38:58;;;;;;;31.63;20.55;;;;;;;8.70;100.00;99896.63;5221488;28;20033;-64
2023/04/24 00:41:29;;;;;;;29.40;19.30;;;;;;;8.64;100.00;99894.50;5225349;28;20025;-64
2023/04/24 00:44:01;;;;;;;30.77;19.27;;;;;;;8.69;100.00;99905.59;5226718;28;20492;-65
2023/04/24 00:46:32;;;;;;;26.92;18.80;;;;;;;8.68;100.00;99909.22;5222260;28;20025;-64
2023/04/24 00:49:05;;;;;;;27.23;19.13;;;;;;;8.68;100.00;99901.25;5220180;28;20037;-64
2023/04/24 00:51:37;;;;;;;27.85;20.08;;;;;;;8.66;100.00;99905.84;5215961;28;20044;-64
2023/04/24 00:54:08;;;;;;;33.10;20.83;;;;;;;8.62;100.00;99899.09;5230271;28;20221;-64
2023/04/24 00:56:41;;;;;;;30.63;20.15;;;;;;;8.67;100.00;99899.56;5223589;28;20034;-64
2023/04/24 00:59:13;;;;;;;31.05;20.33;;;;;;;8.66;100.00;99905.03;5221874;28;20415;-64
2023/04/24 01:01:45;;;;;;;28.02;20.52;;;;;;;8.64;100.00;99898.00;5224690;28;20033;-64
2023/04/24 01:04:17;;;;;;;33.70;21.45;;;;;;;8.63;100.00;99895.50;5219669;28;20113;-64
2023/04/24 01:06:50;;;;;;;33.15;22.30;;;;;;;8.64;100.00;99897.16;5223115;28;20749;-64
2023/04/24 01:09:23;;;;;;;30.10;22.50;;;;;;;8.63;100.00;99899.00;5222924;28;20589;-64
2023/04/24 01:11:54;;;;;;;37.47;22.45;;;;;;;8.66;100.00;99903.19;5227445;28;20097;-65
2023/04/24 01:14:26;;;;;;;36.78;21.60;;;;;;;8.62;100.00;99899.94;5226413;28;20066;-65
2023/04/24 01:16:57;;;;;;;34.45;21.85;;;;;;;8.59;100.00;99896.69;5224321;28;20400;-65
2023/04/24 01:19:29;;;;;;;29.42;21.48;;;;;;;8.57;100.00;99890.66;5222660;28;21364;-65
2023/04/24 01:22:03;;;;;;;34.20;22.30;;;;;;;8.58;100.00;99900.34;5227711;28;20090;-65
2023/04/24 01:24:34;;;;;;;33.17;22.23;;;;;;;8.54;100.00;99896.25;5230146;28;20399;-65
2023/04/24 01:27:06;;;;;;;36.47;22.70;;;;;;;8.56;100.00;99899.63;5225698;28;20338;-65
2023/04/24 01:29:37;;;;;;;35.00;23.75;;;;;;;8.57;100.00;99891.53;5221875;28;20033;-65
2023/04/24 01:32:09;;;;;;;33.65;24.02;;;;;;;8.51;100.00;99902.66;5226545;28;20029;-65
2023/04/24 01:34:40;;;;;;;41.38;24.38;;;;;;;8.48;100.00;99908.25;5220390;28;20064;-65
2023/04/24 01:37:12;;;;;;;42.58;24.90;;;;;;;8.48;100.00;99899.44;5227194;28;20302;-64
2023/04/24 01:39:43;;;;;;;38.20;25.60;;;;;;;8.42;100.00;99893.63;5224529;28;20136;-65
2023/04/24 01:42:16;;;;;;;39.88;26.17;;;;;;;8.48;100.00;99896.78;5237192;28;20030;-66
2023/04/24 01:44:48;;;;;;;41.42;26.75;;;;;;;8.45;100.00;99900.50;5233105;28;20484;-65
2023/04/24 01:47:19;;;;;;;39.58;26.90;;;;;;;8.49;100.00;99898.44;5224360;28;20044;-65
2023/04/24 01:49:51;;;;;;;43.70;27.48;;;;;;;8.46;100.00;99899.56;5220624;28;20021;-65
2023/04/24 01:52:22;;;;;;;44.58;29.67;;;;;;;8.46;100.00;99898.69;5221971;28;20026;-65
2023/04/24 01:54:55;;;;;;;38.13;28.48;;;;;;;8.40;100.00;99900.88;5228789;28;20100;-65
2023/04/24 01:57:27;;;;;;;40.00;28.05;;;;;;;8.46;100.00;99899.56;5224013;28;20168;-65
2023/04/24 01:59:58;;;;;;;42.55;27.83;;;;;;;8.40;100.00;99900.88;5224403;28;20068;-65
2023/04/24 02:02:30;;;;;;;42.80;27.98;;;;;;;8.36;100.00;99912.72;5224769;28;20102;-65
2023/04/24 02:05:02;;;;;;;41.45;27.38;;;;;;;8.28;100.00;99901.84;5227221;28;20112;-65
2023/04/24 02:07:34;;;;;;;37.80;27.42;;;;;;;8.35;100.00;99904.88;5228816;28;20214;-65
2023/04/24 02:10:05;;;;;;;42.40;28.35;;;;;;;8.32;100.00;99908.63;5229965;28;20071;-65
2023/04/24 02:12:37;;;;;;;45.90;28.42;;;;;;;8.32;100.00;99903.31;5222983;28;20036;-66
2023/04/24 02:15:09;;;;;;;43.65;27.27;;;;;;;8.31;100.00;99904.28;5222234;28;20040;-65
2023/04/24 02:17:40;;;;;;;36.92;27.23;;;;;;;8.28;100.00;99907.19;5223331;28;20025;-66
2023/04/24 02:20:12;;;;;;;39.80;27.08;;;;;;;8.27;100.00;99912.66;5221462;28;20025;-66
2023/04/24 02:22:43;;;;;;;42.80;28.58;;;;;;;8.27;100.00;99916.13;5227670;28;20231;-65
2023/04/24 02:25:14;;;;;;;43.55;28.23;;;;;;;8.25;100.00;99907.44;5223989;28;20476;-66
2023/04/24 02:27:46;;;;;;;44.95;28.05;;;;;;;8.27;100.00;99915.31;5220681;28;21605;-65
2023/04/24 02:30:17;;;;;;;42.95;27.67;;;;;;;8.23;100.00;99914.69;5220904;28;20124;-65
2023/04/24 02:32:49;;;;;;;45.30;28.05;;;;;;;8.29;100.00;99921.34;5227877;28;20040;-65
2023/04/24 02:35:20;;;;;;;41.50;28.50;;;;;;;8.23;100.00;99915.53;5236572;28;20021;-66
2023/04/24 02:37:51;;;;;;;42.58;28.30;;;;;;;8.20;100.00;99909.63;5229495;28;20029;-66
2023/04/24 02:40:23;;;;;;;44.47;27.80;;;;;;;8.20;100.00;99906.97;5229371;28;20032;-66
2023/04/24 02:42:54;;;;;;;42.85;26.88;;;;;;;8.18;100.00;99911.56;5234541;28;20068;-66
2023/04/24 02:45:26;;;;;;;45.55;28.55;;;;;;;8.17;100.00;99907.22;5224760;28;20026;-65
2023/04/24 02:47:57;;;;;;;40.85;27.77;;;;;;;8.14;100.00;99913.63;5225610;28;20060;-65
2023/04/24 02:50:28;;;;;;;42.00;28.27;;;;;;;8.19;100.00;99902.63;5224445;28;20031;-66
2023/04/24 02:53:00;;;;;;;42.25;28.17;;;;;;;8.13;100.00;99903.97;5227116;28;20048;-66
2023/04/24 02:55:31;;;;;;;43.53;27.05;;;;;;;8.12;100.00;99898.78;5223850;28;20021;-66
2023/04/24 02:58:03;;;;;;;44.17;29.70;;;;;;;8.10;100.00;99885.63;5226427;28;20392;-67
2023/04/24 03:00:34;;;;;;;46.10;28.65;;;;;;;8.10;100.00;99888.28;5221607;28;20632;-65
2023/04/24 03:03:06;;;;;;;46.80;29.10;;;;;;;8.08;100.00;99892.88;5222810;28;20038;-66
2023/04/24 03:05:38;;;;;;;43.00;27.83;;;;;;;8.04;100.00;99889.63;5229622;28;20446;-65
2023/04/24 03:08:10;;;;;;;42.50;28.33;;;;;;;8.07;100.00;99887.69;5224392;28;20033;-65
2023/04/24 03:10:41;;;;;;;43.75;29.85;;;;;;;8.10;100.00;99892.75;5224207;28;20048;-65
2023/04/24 03:13:13;;;;;;;45.42;29.08;;;;;;;8.04;100.00;99892.28;5224501;28;20022;-65
2023/04/24 03:15:44;;;;;;;40.95;28.52;;;;;;;8.04;100.00;99897.59;5227242;28;20018;-65
2023/04/24 03:18:16;;;;;;;44.65;29.02;;;;;;;8.05;100.00;99899.28;5225563;28;20036;-65
2023/04/24 03:20:47;;;;;;;46.83;28.60;;;;;;;8.03;100.00;99890.59;5231699;28;20021;-65
2023/04/24 03:23:19;;;;;;;40.22;27.20;;;;;;;8.00;100.00;99900.63;5221880;28;20041;-65
2023/04/24 03:25:51;;;;;;;38.78;26.95;;;;;;;7.99;100.00;99894.44;5220914;28;20026;-65
2023/04/24 03:28:22;;;;;;;39.00;27.25;;;;;;;7.99;100.00;99899.75;5222661;28;20083;-65
2023/04/24 03:30:53;;;;;;;40.20;27.70;;;;;;;8.02;100.00;99901.34;5224678;28;20040;-65
2023/04/24 03:33:25;;;;;;;43.78;26.98;;;;;;;7.99;100.00;99902.41;5225967;28;20036;-65
2023/04/24 03:35:56;;;;;;;39.40;25.02;;;;;;;7.99;100.00;99901.59;5223765;28;20032;-65
2023/04/24 03:38:27;;;;;;;40.20;24.48;;;;;;;7.95;100.00;99902.81;5229881;28;20043;-65
2023/04/24 03:40:59;;;;;;;37.20;23.95;;;;;;;7.99;100.00;99894.44;5221479;28;20286;-65
2023/04/24 03:43:33;;;;;;;37.50;25.00;;;;;;;7.98;100.00;99889.28;5227439;28;20026;-65
2023/04/24 03:46:04;;;;;;;38.78;24.52;;;;;;;7.97;100.00;99893.72;5226634;28;20021;-65
2023/04/24 03:48:36;;;;;;;39.22;24.63;;;;;;;8.01;100.00;99892.50;5226534;28;20088;-65
2023/04/24 03:51:07;;;;;;;37.28;24.23;;;;;;;7.98;100.00;99891.94;5237567;28;20407;-65
2023/04/24 03:53:38;;;;;;;34.92;23.48;;;;;;;8.01;100.00;99886.38;5229525;28;20159;-65
2023/04/24 03:56:10;;;;;;;39.15;24.60;;;;;;;7.98;100.00;99886.63;5224409;28;20475;-64
2023/04/24 03:58:42;;;;;;;33.33;23.27;;;;;;;7.98;100.00;99891.94;5223739;28;20498;-65
2023/04/24 04:01:15;;;;;;;36.97;24.65;;;;;;;7.99;100.00;99891.78;5220916;28;20036;-65
2023/04/24 04:03:47;;;;;;;33.35;23.20;;;;;;;7.98;100.00;99895.44;5223360;28;20046;-65
2023/04/24 04:06:19;;;;;;;33.65;22.67;;;;;;;7.96;100.00;99896.53;5219681;28;20040;-65
2023/04/24 04:08:51;;;;;;;34.05;23.40;;;;;;;8.00;100.00;99896.16;5235954;28;20487;-65
2023/04/24 04:11:23;;;;;;;35.58;23.55;;;;;;;7.99;100.00;99901.59;5221695;28;20034;-65
2023/04/24 04:13:55;;;;;;;35.10;22.02;;;;;;;7.95;100.00;99898.34;5218068;28;21269;-65
2023/04/24 04:16:26;;;;;;;33.42;22.80;;;;;;;8.00;100.00;99900.63;5220300;28;20633;-66
2023/04/24 04:18:58;;;;;;;34.53;23.13;;;;;;;7.95;100.00;99903.63;5230239;28;20033;-65
2023/04/24 04:21:31;;;;;;;33.97;22.80;;;;;;;7.91;100.00;99896.06;5223289;28;20087;-65
2023/04/24 04:24:02;;;;;;;34.90;22.85;;;;;;;7.94;100.00;99906.41;5231399;28;20075;-65
2023/04/24 04:26:35;;;;;;;32.10;22.00;;;;;;;7.92;100.00;99911.00;5221063;28;20029;-65
2023/04/24 04:29:06;;;;;;;33.28;21.40;;;;;;;7.89;100.00;99905.97;5219378;28;20391;-65
2023/04/24 04:31:37;;;;;;;29.85;21.23;;;;;;;7.90;100.00;99904.97;5227516;28;20055;-65
2023/04/24 04:34:09;;;;;;;26.77;20.05;;;;;;;7.87;100.00;99914.03;5222131;28;20072;-65
2023/04/24 04:36:41;;;;;;;29.15;21.15;;;;;;;7.89;100.00;99914.78;5222999;28;20018;-65
2023/04/24 04:39:14;;;;;;;27.67;20.92;;;;;;;7.88;100.00;99910.44;5219308;28;20467;-65
2023/04/24 04:41:49;;;;;;;30.15;21.33;;;;;;;7.87;100.00;99908.75;5227553;28;20028;-66
2023/04/24 04:44:20;;;;;;;30.45;20.88;;;;;;;7.86;100.00;99907.03;5238826;28;20100;-65
2023/04/24 04:46:53;;;;;;;27.73;20.60;;;;;;;7.83;100.00;99915.25;5227083;28;20382;-65
2023/04/24 04:49:24;;;;;;;28.50;21.35;;;;;;;7.85;100.00;99916.81;5225497;28;20034;-66
2023/04/24 04:51:56;;;;;;;33.17;22.58;;;;;;;7.93;100.00;99918.84;5227416;28;20021;-65
2023/04/24 04:54:27;;;;;;;26.77;19.48;;;;;;;7.84;100.00;99923.13;5234458;28;20082;-66
2023/04/24 04:57:00;;;;;;;29.88;21.15;;;;;;;7.92;100.00;99919.84;5222817;28;20028;-65
2023/04/24 04:59:31;;;;;;;27.73;18.95;;;;;;;7.85;100.00;99919.47;5225009;28;20121;-66
2023/04/24 05:02:03;;;;;;;26.58;19.02;;;;;;;7.87;100.00;99939.78;5229699;28;20628;-65
2023/04/24 05:04:34;;;;;;;24.17;17.83;;;;;;;7.87;100.00;99923.84;5231072;28;20037;-65
2023/04/24 05:07:06;;;;;;;25.80;17.83;;;;;;;7.87;100.00;99932.63;5234128;28;20091;-65
2023/04/24 05:09:37;;;;;;;25.60;17.92;;;;;;;7.89;100.00;99924.56;5231076;28;20099;-65
2023/04/24 05:12:08;;;;;;;22.02;16.90;;;;;;;7.92;100.00;99932.25;5242285;28;20167;-66
2023/04/24 05:14:40;;;;;;;24.92;16.30;;;;;;;7.90;100.00;99934.19;5232552;28;20021;-67
2023/04/24 05:17:11;;;;;;;21.30;15.43;;;;;;;7.89;100.00;99937.84;5223806;28;20026;-65
2023/04/24 05:19:43;;;;;;;22.42;14.93;;;;;;;7.89;100.00;99932.53;5226577;28;20029;-66
2023/04/24 05:22:14;;;;;;;22.35;14.50;;;;;;;7.90;100.00;99929.75;5222700;28;20072;-66
2023/04/24 05:24:46;;;;;;;17.52;13.23;;;;;;;7.87;100.00;99937.13;5237267;28;20059;-66
2023/04/24 05:27:18;;;;;;;18.35;12.13;;;;;;;7.85;100.00;99937.22;5230058;28;20497;-66
2023/04/24 05:29:49;;;;;;;14.57;9.50;;;;;;;7.82;100.00;99950.75;5229941;28;20029;-66
2023/04/24 05:32:21;;;;;;;13.00;8.52;;;;;;;7.82;100.00;99951.59;5222136;28;20108;-66
2023/04/24 05:34:52;;;;;;;15.75;7.30;;;;;;;7.77;100.00;99961.75;5226525;28;20552;-66
2023/04/24 05:37:23;;;;;;;10.50;6.00;;;;;;;7.73;100.00;99962.94;5219426;28;20656;-67
2023/04/24 05:39:55;;;;;;;9.70;5.07;;;;;;;7.75;100.00;99971.63;5227011;28;20021;-67
2023/04/24 05:42:26;;;;;;;7.55;4.38;;;;;;;7.69;100.00;99973.91;5228440;28;20025;-67
2023/04/24 05:44:57;;;;;;;7.00;3.55;;;;;;;7.65;100.00;99965.34;5233692;28;20036;-66
2023/04/24 05:47:29;;;;;;;7.75;3.53;;;;;;;7.63;100.00;99957.53;5233351;28;20117;-66
2023/04/24 05:50:00;;;;;;;6.97;2.92;;;;;;;7.62;100.00;99973.56;5222621;28;20479;-66
2023/04/24 05:52:31;;;;;;;5.60;2.85;;;;;;;7.59;100.00;99985.28;5245614;28;20032;-67
2023/04/24 05:55:03;;;;;;;6.90;3.15;;;;;;;7.58;100.00;99988.88;5239113;28;20025;-66
2023/04/24 05:57:35;;;;;;;6.88;3.85;;;;;;;7.57;100.00;99989.84;5235052;28;20024;-66
2023/04/24 06:00:08;;;;;;;7.63;3.15;;;;;;;7.56;100.00;100004.09;5234378;28;20136;-67
2023/04/24 06:02:39;;;;;;;10.38;4.22;;;;;;;7.54;100.00;99990.09;5229462;28;20502;-67
2023/04/24 06:05:11;;;;;;;8.73;4.90;;;;;;;7.52;100.00;99999.97;5228822;28;20037;-66
2023/04/24 06:07:43;;;;;;;8.23;4.28;;;;;;;7.46;100.00;99992.50;5228650;28;21240;-67
2023/04/24 06:10:14;;;;;;;9.90;5.32;;;;;;;7.46;100.00;100005.78;5226303;28;20029;-67
2023/04/24 06:12:46;;;;;;;12.38;6.25;;;;;;;7.47;100.00;100007.44;5231624;28;20107;-66
2023/04/24 06:15:17;;;;;;;12.45;8.52;;;;;;;7.47;100.00;100010.09;5229477;28;20026;-66
2023/04/24 06:17:48;;;;;;;14.00;8.82;;;;;;;7.49;100.00;100010.81;5231803;28;20297;-66
2023/04/24 06:20:20;;;;;;;14.50;9.43;;;;;;;7.47;100.00;100018.06;5233552;28;20060;-66
2023/04/24 06:22:51;;;;;;;18.90;10.32;;;;;;;7.46;100.00;100032.31;5231062;28;20479;-66
2023/04/24 06:25:25;;;;;;;13.48;9.68;;;;;;;7.47;100.00;100028.69;5231057;28;20144;-67
2023/04/24 06:27:56;;;;;;;14.82;10.80;;;;;;;7.49;100.00;100048.00;5232675;28;20053;-67
2023/04/24 06:30:28;;;;;;;17.38;11.27;;;;;;;7.47;100.00;100044.59;5225862;28;20701;-68
2023/04/24 06:32:59;;;;;;;20.02;13.00;;;;;;;7.49;100.00;100057.75;5231177;28;20033;-67
2023/04/24 06:35:31;;;;;;;20.63;12.98;;;;;;;7.49;100.00;100052.47;5232066;28;20033;-67
2023/04/24 06:38:02;;;;;;;20.63;12.18;;;;;;;7.51;100.00;100085.03;5233790;28;20369;-68
2023/04/24 06:40:33;;;;;;;17.85;11.77;;;;;;;7.47;100.00;100085.25;5233928;28;20036;-67
2023/04/24 06:43:06;;;;;;;19.55;13.68;;;;;;;7.45;100.00;100089.84;5231237;28;20024;-67
2023/04/24 06:45:39;;;;;;;23.10;14.05;;;;;;;7.50;100.00;100102.78;5231107;28;20088;-67
2023/04/24 06:48:11;;;;;;;20.77;13.83;;;;;;;7.44;100.00;100106.75;5227823;28;20499;-67
2023/04/24 06:50:42;;;;;;;25.65;14.80;;;;;;;7.42;100.00;100106.00;5216783;28;20026;-67
2023/04/24 06:53:14;;;;;;;24.58;14.38;;;;;;;7.46;100.00;100119.91;5231739;28;20025;-67
2023/04/24 06:55:45;;;;;;;28.00;16.75;;;;;;;7.41;100.00;100127.34;5236984;28;20029;-67
2023/04/24 06:58:17;;;;;;;29.10;15.63;;;;;;;7.41;100.00;100145.94;5233584;28;20033;-67
2023/04/24 07:00:49;;;;;;;32.42;18.55;;;;;;;7.40;100.00;100146.88;5226612;28;20117;-67
2023/04/24 07:03:20;;;;;;;27.50;16.35;;;;;;;7.38;100.00;100146.16;5229971;28;20481;-67
2023/04/24 07:05:53;;;;;;;28.52;17.63;;;;;;;7.34;100.00;100155.31;5222720;28;20499;-67
2023/04/24 07:08:25;;;;;;;33.33;18.98;;;;;;;7.33;100.00;100169.53;5230850;28;20527;-68
2023/04/24 07:10:57;;;;;;;29.50;16.77;;;;;;;7.29;100.00;100176.88;5234409;28;20032;-67
2023/04/24 07:13:28;;;;;;;30.20;17.45;;;;;;;7.30;100.00;100180.38;5227762;28;20095;-68
2023/04/24 07:16:00;;;;;;;31.00;18.08;;;;;;;7.28;100.00;100199.06;5232191;28;20025;-67
2023/04/24 07:18:31;;;;;;;34.70;19.45;;;;;;;7.30;100.00;100204.25;5232381;28;20385;-68
2023/04/24 07:21:02;;;;;;;34.47;18.27;;;;;;;7.31;100.00;100209.44;5232099;28;20049;-67
2023/04/24 07:23:34;;;;;;;33.17;18.27;;;;;;;7.32;100.00;100220.91;5232854;28;20036;-68
2023/04/24 07:26:06;;;;;;;33.70;18.30;;;;;;;7.32;100.00;100231.53;5228072;28;20114;-68
2023/04/24 07:28:37;;;;;;;35.15;19.10;;;;;;;7.34;100.00;100230.44;5230891;28;20553;-68
2023/04/24 07:31:11;;;;;;;35.90;19.70;;;;;;;7.35;100.00;100234.81;5226886;28;20372;-68
2023/04/24 07:33:43;;;;;;;27.83;16.20;;;;;;;7.41;100.00;100252.09;5228964;28;20518;-67
2023/04/24 07:36:18;;;;;;;34.55;17.08;;;;;;;7.43;100.00;100260.78;5233431;28;20028;-68
2023/04/24 07:38:50;;;;;;;26.42;14.10;;;;;;;7.38;100.00;100262.91;5225897;28;20037;-68
2023/04/24 07:41:21;;;;;;;23.92;12.02;;;;;;;7.34;100.00;100272.06;5224646;28;20148;-68
2023/04/24 07:43:53;;;;;;;25.42;11.98;;;;;;;7.32;100.00;100285.44;5232626;28;20468;-68
2023/04/24 07:46:25;;;;;;;22.52;11.65;;;;;;;7.29;100.00;100284.81;5233130;28;20124;-67
2023/04/24 07:48:56;;;;;;;19.05;9.27;;;;;;;7.32;100.00;100303.16;5234003;28;20108;-68
2023/04/24 07:51:28;;;;;;;26.80;10.07;;;;;;;7.23;100.00;100297.56;5228765;28;20483;-68
2023/04/24 07:53:59;;;;;;;21.30;9.88;;;;;;;7.23;100.00;100315.31;5216723;28;20638;-68
2023/04/24 07:56:31;;;;;;;25.38;9.85;;;;;;;7.22;100.00;100319.75;5222776;28;20030;-68
2023/04/24 07:59:02;;;;;;;27.58;11.55;;;;;;;7.22;100.00;100318.91;5233283;28;20029;-67
2023/04/24 08:01:33;;;;;;;27.42;9.93;;;;;;;7.25;100.00;100338.13;5227516;28;20040;-68
2023/04/24 08:04:05;;;;;;;24.40;10.13;;;;;;;7.24;100.00;100340.88;5230143;28;20056;-68
2023/04/24 08:06:36;;;;;;;36.22;11.48;;;;;;;7.26;100.00;100333.66;5230018;28;20113;-68
2023/04/24 08:09:08;;;;;;;29.40;11.23;;;;;;;7.28;100.00;100341.50;5225769;28;20543;-68
2023/04/24 08:11:39;;;;;;;26.77;12.32;;;;;;;7.31;100.00;100354.56;5228413;28;20029;-67
2023/04/24 08:14:13;;;;;;;30.42;12.05;;;;;;;7.33;100.00;100356.13;5220862;28;20037;-68
2023/04/24 08:16:44;;;;;;;35.87;13.53;;;;;;;7.38;100.00;100361.97;5231162;28;20035;-68
2023/04/24 08:19:16;;;;;;;33.63;14.98;;;;;;;7.49;100.00;100363.84;5227650;28;20037;-67
2023/04/24 08:21:47;;;;;;;32.92;14.60;;;;;;;7.47;100.00;100361.31;5225896;28;20043;-67
2023/04/24 08:24:19;;;;;;;37.95;14.70;;;;;;;7.55;100.00;100376.69;5226727;28;20037;-67
2023/04/24 08:26:51;;;;;;;29.70;13.95;;;;;;;7.60;100.00;100366.59;5229223;28;20025;-67
2023/04/24 08:29:22;;;;;;;35.28;14.30;;;;;;;7.60;100.00;100385.19;5230520;28;20045;-67
2023/04/24 08:31:54;;;;;;;34.70;14.15;;;;;;;7.60;100.00;100390.50;5217111;28;20029;-67
2023/04/24 08:34:26;;;;;;;30.50;14.07;;;;;;;7.64;100.00;100396.44;5226737;28;20034;-67
2023/04/24 08:36:57;;;;;;;27.67;12.10;;;;;;;7.62;100.00;100403.66;5234640;28;20032;-67
2023/04/24 08:39:29;;;;;;;29.42;12.35;;;;;;;7.63;100.00;100406.22;5224578;28;20040;-67
2023/04/24 08:42:05;;;;;;;33.03;12.30;;;;;;;7.62;100.00;100407.16;5234330;28;20029;-67
2023/04/24 08:44:37;;;;;;;30.25;11.68;;;;;;;7.64;100.00;100415.84;5226306;28;20112;-67
2023/04/24 08:47:08;;;;;;;28.13;10.70;;;;;;;7.65;100.00;100422.00;5231769;28;20078;-67
2023/04/24 08:49:40;;;;;;;34.95;10.57;;;;;;;7.68;100.00;100432.41;5228308;28;20448;-67
2023/04/24 08:52:12;;;;;;;30.95;10.25;;;;;;;7.73;100.00;100432.97;5226760;28;20060;-67
2023/04/24 08:54:46;;;;;;;30.45;10.80;;;;;;;7.80;100.00;100442.16;5235352;28;20396;-66
2023/04/24 08:57:18;;;;;;;33.03;10.82;;;;;;;7.85;100.00;100447.16;5225661;28;20049;-66
2023/04/24 08:59:50;;;;;;;28.65;10.75;;;;;;;7.87;100.00;100450.56;5229790;28;20183;-66
2023/04/24 09:02:23;;;;;;;23.00;9.18;;;;;;;7.79;100.00;100442.28;5229161;28;20053;-66
2023/04/24 09:04:55;;;;;;;26.17;9.02;;;;;;;7.72;100.00;100462.28;5223287;28;20520;-66
2023/04/24 09:07:28;;;;;;;25.05;8.23;;;;;;;7.68;100.00;100460.78;5223917;28;21049;-66
2023/04/24 09:10:01;;;;;;;26.98;8.98;;;;;;;7.64;100.00;100461.00;5226341;28;20104;-66
2023/04/24 09:12:34;;;;;;;23.45;7.85;;;;;;;7.54;100.00;100464.41;5229794;28;20199;-66
2023/04/24 09:15:07;;;;;;;20.38;6.43;;;;;;;7.42;100.00;100466.97;5230030;28;20032;-66
2023/04/24 09:17:39;;;;;;;20.88;7.00;;;;;;;7.43;100.00;100476.63;5238799;28;20107;-67
2023/04/24 09:20:10;;;;;;;21.35;6.57;;;;;;;7.44;100.00;100478.34;5250206;28;20032;-66
2023/04/24 09:22:44;;;;;;;21.45;7.63;;;;;;;7.54;100.00;100480.34;5237663;28;20029;-66
2023/04/24 09:25:16;;;;;;;20.80;8.93;;;;;;;7.67;100.00;100491.81;5231917;28;20026;-66
2023/04/24 09:27:47;;;;;;;19.70;7.10;;;;;;;7.65;100.00;100491.91;5227745;28;20062;-66
2023/04/24 09:30:22;;;;;;;26.90;8.15;;;;;;;7.65;100.00;100504.31;5230721;28;20037;-66
2023/04/24 09:33:13;;;;;;;21.52;6.68;;;;;;;7.68;100.00;100521.88;5232762;28;20080;-66
2023/04/24 09:35:51;;;;;;;25.10;6.40;;;;;;;7.52;100.00;100511.47;5231878;28;20673;-66
2023/04/24 09:38:32;;;;;;;16.85;5.32;;;;;;;7.47;100.00;100527.69;5236755;28;20088;-66
2023/04/24 09:41:13;;;;;;;18.08;5.07;;;;;;;7.40;100.00;100531.72;5223708;28;20163;-66
2023/04/24 09:43:44;;;;;;;13.68;5.18;;;;;;;7.40;100.00;100521.09;5227338;28;20550;-66
2023/04/24 09:46:18;;;;;;;15.77;4.95;;;;;;;7.40;100.00;100529.06;5222592;28;20084;-66
2023/04/24 09:48:49;;;;;;;15.52;4.72;;;;;;;7.44;100.00;100541.16;5226521;28;20038;-66
2023/04/24 09:51:35;;;;;;;12.80;4.40;;;;;;;7.55;100.00;100541.28;5223849;28;20029;-66
2023/04/24 09:54:27;;;;;;;16.17;4.20;;;;;;;7.55;100.00;100549.25;5240119;28;20773;-66
2023/04/24 09:56:59;;;;;;;11.15;3.88;;;;;;;7.62;100.00;100553.19;5225342;28;20033;-66
2023/04/24 09:59:31;;;;;;;13.60;4.30;;;;;;;7.72;100.00;100555.22;5229547;28;20481;-66
2023/04/24 10:02:03;;;;;;;11.45;3.92;;;;;;;7.87;100.00;100556.81;5228838;28;20073;-66
2023/04/24 10:04:34;;;;;;;12.55;4.25;;;;;;;8.07;100.00;100558.03;5227131;28;20029;-65
2023/04/24 10:07:06;;;;;;;12.10;4.40;;;;;;;8.20;100.00;100558.88;5233251;28;20018;-65
2023/04/24 10:09:37;;;;;;;17.02;4.00;;;;;;;8.28;100.00;100560.13;5229106;28;20370;-65
2023/04/24 10:12:09;;;;;;;10.20;3.70;;;;;;;8.41;100.00;100558.31;5238892;28;20025;-65
2023/04/24 10:14:41;;;;;;;9.57;3.92;;;;;;;8.49;100.00;100557.78;5229975;28;20029;-65
2023/04/24 10:17:13;;;;;;;12.38;3.25;;;;;;;8.53;100.00;100556.59;5224354;28;20105;-66
2023/04/24 10:19:46;;;;;;;11.98;3.50;;;;;;;8.48;100.00;100553.44;5233935;28;20423;-66
2023/04/24 10:22:17;;;;;;;10.77;3.35;;;;;;;8.44;100.00;100552.81;5235622;28;20403;-65
2023/04/24 10:24:50;;;;;;;11.85;2.97;;;;;;;8.39;100.00;100568.19;5236103;28;20025;-66
2023/04/24 10:27:23;;;;;;;7.35;2.40;;;;;;;8.32;100.00;100565.16;5231778;28;20472;-65
2023/04/24 10:29:55;;;;;;;5.90;1.83;;;;;;;8.20;100.00;100563.34;5232114;28;20033;-65
2023/04/24 10:32:26;;;;;;;6.22;1.70;;;;;;;8.10;100.00;100563.16;5238002;28;20032;-65
2023/04/24 10:34:57;;;;;;;5.38;1.38;;;;;;;8.07;100.00;100559.84;5221950;28;20044;-65
2023/04/24 10:37:36;;;;;;;3.83;1.10;;;;;;;8.03;100.00;100575.16;5229403;28;20883;-65
2023/04/24 10:40:10;;;;;;;4.18;1.50;;;;;;;8.08;100.00;100574.84;5227827;28;20021;-65
2023/04/24 10:42:44;;;;;;;5.55;1.40;;;;;;;8.18;100.00;100579.41;5226673;28;20029;-66
2023/04/24 10:45:21;;;;;;;9.45;1.45;;;;;;;8.24;100.00;100570.97;5226779;28;20026;-65
2023/04/24 10:48:00;;;;;;;6.13;1.50;;;;;;;8.31;100.00;100582.03;5229585;28;20108;-65
2023/04/24 10:50:53;;;;;;;7.80;1.65;;;;;;;8.38;100.00;100579.78;5227886;28;20045;-65
2023/04/24 10:53:29;;;;;;;8.10;1.70;;;;;;;8.44;100.00;100582.06;5231219;28;20448;-66
2023/04/24 10:56:06;;;;;;;6.25;1.45;;;;;;;8.49;100.00;100587.03;5229346;28;20029;-65
2023/04/24 10:58:49;;;;;;;10.13;2.00;;;;;;;8.57;100.00;100588.19;5226626;28;20030;-65
2023/04/24 11:01:26;;;;;;;3.45;1.27;;;;;;;8.58;100.00;100591.69;5227549;28;20692;-65
2023/04/24 11:04:02;;;;;;;6.80;1.60;;;;;;;8.61;100.00;100597.63;5224768;28;20064;-65
2023/04/24 11:06:37;;;;;;;8.50;1.75;;;;;;;8.68;100.00;100598.03;5224444;28;20034;-65
2023/04/24 11:09:12;;;;;;;5.43;1.33;;;;;;;8.69;100.00;100604.22;5227626;28;20025;-65
2023/04/24 11:11:47;;;;;;;5.93;1.60;;;;;;;8.68;100.00;100600.69;5225212;28;20036;-65
2023/04/24 11:14:18;;;;;;;8.15;1.52;;;;;;;8.63;100.00;100597.53;5229626;28;20025;-65
2023/04/24 11:16:57;;;;;;;6.90;1.30;;;;;;;8.58;100.00;100607.66;5232156;28;20075;-65
2023/04/24 11:19:28;;;;;;;5.38;1.67;;;;;;;8.56;100.00;100617.53;5225130;28;20033;-65
2023/04/24 11:22:13;;;;;;;5.85;1.30;;;;;;;8.54;100.00;100619.47;5230908;28;20053;-65
2023/04/24 11:24:45;;;;;;;;;;;;;;;8.58;100.00;100621.78;5227241;28;20128;-66
2023/04/24 11:27:21;;;;;;;6.35;1.48;;;;;;;8.40;100.00;100623.09;5235664;28;19966;-65
2023/04/24 11:29:55;;;;;;;6.60;1.38;;;;;;;8.34;100.00;100627.03;5228856;28;20018;-65
2023/04/24 11:32:37;;;;;;;5.60;1.40;;;;;;;8.33;100.00;100627.97;5225084;28;20324;-65
2023/04/24 11:35:20;;;;;;;3.90;1.33;;;;;;;8.36;100.00;100622.44;5225026;28;20034;-65
2023/04/24 11:37:54;;;;;;;5.40;1.45;;;;;;;8.46;100.00;100635.97;5229609;28;20087;-65
2023/04/24 11:40:28;;;;;;;6.28;1.40;;;;;;;8.51;100.00;100630.31;5224610;28;20039;-65